createdAt,value
2018-09-19T00:01:29.940Z,63.40
2018-09-19T00:03:58.839Z,62.78
2018-09-19T00:06:28.424Z,63.26
2018-09-19T00:08:58.174Z,63.34
2018-09-19T00:11:27.021Z,64.03
2018-09-19T00:13:55.817Z,64.12
2018-09-19T00:16:24.605Z,63.65
2018-09-19T00:18:53.395Z,64.21
2018-09-19T00:21:23.313Z,64.88
2018-09-19T00:23:52.102Z,65.18
2018-09-19T00:26:20.886Z,65.17
2018-09-19T00:28:49.723Z,65.52
2018-09-19T00:31:19.663Z,65.49
2018-09-19T00:33:49.449Z,66.23
2018-09-19T00:36:19.223Z,65.66
2018-09-19T00:38:49.189Z,66.48
2018-09-19T00:41:19.052Z,66.74
2018-09-19T00:43:48.120Z,65.96
2018-09-19T00:46:18.457Z,66.76
2018-09-19T00:48:48.121Z,67.34
2018-09-19T00:51:17.689Z,67.11
2018-09-19T00:53:47.520Z,67.39
2018-09-19T00:56:16.715Z,68.00
2018-09-19T00:58:46.690Z,67.52
2018-09-19T01:01:15.637Z,68.00
2018-09-19T01:03:44.650Z,68.38
2018-09-19T01:06:14.060Z,68.21
2018-09-19T01:08:43.506Z,68.19
2018-09-19T01:11:12.271Z,68.08
2018-09-19T01:13:41.063Z,68.92
2018-09-19T01:16:09.855Z,68.04
2018-09-19T01:18:39.231Z,68.20
2018-09-19T01:21:08.934Z,68.46
2018-09-19T01:23:38.634Z,68.63
2018-09-19T01:26:07.452Z,69.69
2018-09-19T01:28:36.309Z,69.67
2018-09-19T01:31:06.114Z,69.61
2018-09-19T01:33:34.916Z,68.89
2018-09-19T01:37:06.690Z,68.78
2018-09-19T01:39:35.540Z,68.77
2018-09-19T01:42:04.490Z,69.49
2018-09-19T01:44:33.347Z,69.85
2018-09-19T01:47:02.986Z,69.85
2018-09-19T01:49:31.789Z,70.11
2018-09-19T01:52:01.592Z,70.00
2018-09-19T01:54:30.547Z,69.46
2018-09-19T01:56:59.633Z,70.19
2018-09-19T01:59:29.337Z,70.28
2018-09-19T02:01:58.857Z,69.77
2018-09-19T02:04:27.620Z,70.25
2018-09-19T02:06:57.014Z,70.29
2018-09-19T02:09:26.332Z,69.94
2018-09-19T02:11:55.950Z,69.95
2018-09-19T02:14:24.700Z,70.15
2018-09-19T02:16:53.472Z,70.63
2018-09-19T02:19:22.808Z,71.17
2018-09-19T02:21:52.322Z,71.42
2018-09-19T02:24:21.242Z,71.08
2018-09-19T02:26:50.009Z,72.12
2018-09-19T02:29:19.676Z,72.27
2018-09-19T02:31:48.731Z,72.55
2018-09-19T02:34:18.086Z,72.32
2018-09-19T02:36:46.923Z,72.63
2018-09-19T02:39:15.747Z,73.15
2018-09-19T02:41:44.767Z,72.85
2018-09-19T02:44:14.344Z,73.92
2018-09-19T02:46:43.881Z,73.63
2018-09-19T02:49:12.644Z,74.54
2018-09-19T02:51:41.460Z,74.41
2018-09-19T02:54:10.709Z,73.98
2018-09-19T02:56:39.955Z,74.69
2018-09-19T02:59:09.567Z,74.77
2018-09-19T03:01:38.795Z,74.79
2018-09-19T03:04:07.810Z,75.36
2018-09-19T03:06:37.623Z,74.67
2018-09-19T03:09:07.281Z,74.97
2018-09-19T03:11:37.012Z,76.03
2018-09-19T03:14:05.859Z,75.56
2018-09-19T03:16:34.728Z,76.52
2018-09-19T03:19:04.049Z,76.34
2018-09-19T03:21:33.956Z,76.71
2018-09-19T03:24:02.792Z,76.66
2018-09-19T03:26:31.669Z,76.50
2018-09-19T03:29:01.335Z,76.46
2018-09-19T03:31:30.324Z,76.70
2018-09-19T03:33:59.363Z,76.72
2018-09-19T03:36:28.668Z,77.61
2018-09-19T03:38:57.656Z,77.19
2018-09-19T03:41:26.666Z,77.78
2018-09-19T03:43:55.534Z,77.96
2018-09-19T03:46:25.427Z,78.13
2018-09-19T03:48:54.347Z,77.68
2018-09-19T03:51:23.926Z,78.31
2018-09-19T03:53:53.437Z,77.58
2018-09-19T03:56:22.288Z,77.86
2018-09-19T03:58:51.670Z,78.29
2018-09-19T04:01:20.457Z,78.86
2018-09-19T04:03:49.400Z,78.29
2018-09-19T04:06:19.702Z,79.07
2018-09-19T04:08:49.354Z,78.80
2018-09-19T04:11:19.028Z,79.29
2018-09-19T04:13:48.017Z,78.59
2018-09-19T04:16:17.133Z,78.46
2018-09-19T04:18:46.879Z,79.23
2018-09-19T04:21:17.002Z,79.33
2018-09-19T04:23:46.048Z,79.01
2018-09-19T04:26:14.910Z,78.98
2018-09-19T04:28:43.862Z,80.06
2018-09-19T04:31:13.209Z,78.99
2018-09-19T04:33:42.061Z,78.76
2018-09-19T04:36:10.959Z,79.37
2018-09-19T04:38:40.093Z,78.93
2018-09-19T04:41:08.932Z,78.89
2018-09-19T04:43:38.257Z,79.33
2018-09-19T04:46:08.050Z,79.50
2018-09-19T04:48:37.005Z,78.97
2018-09-19T04:51:06.312Z,78.31
2018-09-19T04:53:36.207Z,79.43
2018-09-19T04:56:05.785Z,79.59
2018-09-19T04:58:35.534Z,79.03
2018-09-19T05:01:04.992Z,79.11
2018-09-19T05:03:34.320Z,78.84
2018-09-19T05:06:03.192Z,79.03
2018-09-19T05:08:32.763Z,78.97
2018-09-19T05:11:02.069Z,78.82
2018-09-19T05:13:31.271Z,78.54
2018-09-19T05:16:00.328Z,78.32
2018-09-19T05:18:29.969Z,78.35
2018-09-19T05:20:59.677Z,78.01
2018-09-19T05:23:28.818Z,77.58
2018-09-19T05:25:58.746Z,78.31
2018-09-19T05:28:27.768Z,77.96
2018-09-19T05:30:57.435Z,77.72
2018-09-19T05:33:26.436Z,76.99
2018-09-19T05:35:55.359Z,77.26
2018-09-19T05:38:24.623Z,76.41
2018-09-19T05:40:53.498Z,76.10
2018-09-19T05:43:22.997Z,75.56
2018-09-19T05:45:52.177Z,75.72
2018-09-19T05:48:21.829Z,75.37
2018-09-19T05:50:50.722Z,75.24
2018-09-19T05:53:20.177Z,75.81
2018-09-19T05:55:49.257Z,75.22
2018-09-19T05:58:19.806Z,74.19
2018-09-19T06:00:49.703Z,74.03
2018-09-19T06:03:18.868Z,71.96
2018-09-19T06:05:48.990Z,71.46
2018-09-19T06:08:18.643Z,70.72
2018-09-19T06:10:48.254Z,70.41
2018-09-19T06:13:17.310Z,70.40
2018-09-19T06:15:46.473Z,68.84
2018-09-19T06:18:16.433Z,69.53
2018-09-19T06:20:46.999Z,69.99
2018-09-19T06:23:15.843Z,68.44
2018-09-19T06:25:44.649Z,68.91
2018-09-19T06:28:13.481Z,68.54
2018-09-19T06:30:42.883Z,67.95
2018-09-19T06:33:11.771Z,66.50
2018-09-19T06:35:40.760Z,66.82
2018-09-19T06:38:09.637Z,66.21
2018-09-19T06:40:38.538Z,65.43
2018-09-19T06:43:07.475Z,65.28
2018-09-19T06:45:36.460Z,65.67
2018-09-19T06:48:06.325Z,65.20
2018-09-19T06:50:36.098Z,65.19
2018-09-19T06:53:05.989Z,65.14
2018-09-19T06:55:34.850Z,65.20
2018-09-19T06:58:04.362Z,64.55
2018-09-19T07:00:34.677Z,65.03
2018-09-19T07:03:03.517Z,64.71
2018-09-19T07:05:32.361Z,65.14
2018-09-19T07:08:01.885Z,64.42
2018-09-19T07:10:31.223Z,65.12
2018-09-19T07:13:00.354Z,64.41
2018-09-19T07:15:29.526Z,63.06
2018-09-19T07:17:59.216Z,64.00
2018-09-19T07:20:29.254Z,62.93
2018-09-19T07:22:58.353Z,62.84
2018-09-19T07:25:28.397Z,63.32
2018-09-19T07:27:57.228Z,63.18
2018-09-19T07:30:26.613Z,63.01
2018-09-19T07:32:55.533Z,62.38
2018-09-19T07:35:38.755Z,62.95
2018-09-19T07:38:07.659Z,61.88
2018-09-19T07:40:36.904Z,62.05
2018-09-19T07:43:05.809Z,62.55
2018-09-19T07:45:34.718Z,62.77
2018-09-19T07:48:04.111Z,62.00
2018-09-19T07:50:33.224Z,61.54
2018-09-19T07:53:04.189Z,61.78
2018-09-19T07:55:34.504Z,61.28
2018-09-19T07:58:03.868Z,61.89
2018-09-19T08:00:33.774Z,60.80
2018-09-19T08:03:02.528Z,61.06
2018-09-19T08:05:31.469Z,60.67
2018-09-19T08:08:01.184Z,60.06
2018-09-19T08:10:30.887Z,60.60
2018-09-19T08:12:59.793Z,59.75
2018-09-19T08:15:29.281Z,60.16
2018-09-19T08:17:58.693Z,60.29
2018-09-19T08:20:28.325Z,61.48
2018-09-19T08:22:57.128Z,60.93
2018-09-19T08:25:25.960Z,59.43
2018-09-19T08:27:54.854Z,59.34
2018-09-19T08:30:24.753Z,60.31
2018-09-19T08:32:53.563Z,60.07
2018-09-19T08:35:22.383Z,59.51
2018-09-19T08:37:51.190Z,58.95
2018-09-19T08:40:20.066Z,58.93
2018-09-19T08:42:49.236Z,59.65
2018-09-19T08:45:19.207Z,58.29
2018-09-19T08:47:48.941Z,58.10
2018-09-19T08:50:18.421Z,58.12
2018-09-19T08:52:48.049Z,57.35
2018-09-19T08:55:17.535Z,58.45
2018-09-19T08:57:46.816Z,58.58
2018-09-19T09:00:16.929Z,58.86
2018-09-19T09:02:45.915Z,58.05
2018-09-19T09:05:14.770Z,57.52
2018-09-19T09:07:44.100Z,55.97
2018-09-19T09:10:12.942Z,56.28
2018-09-19T09:12:42.401Z,55.49
2018-09-19T09:15:11.219Z,56.20
2018-09-19T09:17:40.724Z,55.49
2018-09-19T09:20:10.154Z,56.01
2018-09-19T09:22:38.994Z,55.05
2018-09-19T09:25:07.806Z,55.13
2018-09-19T09:27:37.159Z,55.22
2018-09-19T09:30:06.743Z,56.13
2018-09-19T09:32:35.862Z,55.21
2018-09-19T09:35:04.676Z,54.33
2018-09-19T09:37:33.617Z,55.25
2018-09-19T09:40:02.467Z,55.14
2018-09-19T09:42:32.463Z,55.73
2018-09-19T09:45:01.349Z,55.87
2018-09-19T09:47:31.046Z,56.28
2018-09-19T09:49:59.918Z,54.85
2018-09-19T09:52:29.346Z,54.55
2018-09-19T09:54:58.154Z,54.07
2018-09-19T09:57:26.977Z,54.46
2018-09-19T09:59:56.457Z,54.14
2018-09-19T10:02:25.272Z,53.89
2018-09-19T10:04:54.061Z,52.71
2018-09-19T10:07:23.925Z,53.35
2018-09-19T10:09:52.736Z,53.17
2018-09-19T10:12:22.037Z,52.08
2018-09-19T10:14:50.894Z,53.12
2018-09-19T10:17:19.676Z,52.48
2018-09-19T10:19:49.998Z,52.85
2018-09-19T10:22:19.061Z,51.54
2018-09-19T10:24:54.399Z,51.42
2018-09-19T10:27:23.185Z,51.66
2018-09-19T10:29:52.604Z,51.29
2018-09-19T10:32:21.409Z,51.29
2018-09-19T10:34:50.207Z,51.72
2018-09-19T10:37:19.754Z,50.61
2018-09-19T10:39:48.862Z,50.80
2018-09-19T10:42:19.247Z,51.49
2018-09-19T10:44:48.919Z,51.01
2018-09-19T10:47:19.362Z,51.79
2018-09-19T10:49:49.698Z,51.95
2018-09-19T10:52:20.085Z,51.03
2018-09-19T10:54:49.496Z,50.62
2018-09-19T10:57:18.497Z,50.96
2018-09-19T10:59:47.840Z,50.71
2018-09-19T11:02:16.855Z,50.44
2018-09-19T11:04:46.032Z,51.00
2018-09-19T11:07:15.531Z,51.78
2018-09-19T11:09:44.395Z,51.37
2018-09-19T11:12:13.753Z,52.06
2018-09-19T11:14:42.563Z,51.38
2018-09-19T11:17:11.436Z,51.69
2018-09-19T11:19:40.990Z,51.47
2018-09-19T11:22:09.774Z,51.68
2018-09-19T11:24:38.617Z,51.00
2018-09-19T11:27:07.456Z,51.03
2018-09-19T11:29:37.112Z,51.21
2018-09-19T11:32:05.939Z,51.24
2018-09-19T11:34:34.894Z,51.46
2018-09-19T11:37:03.783Z,51.32
2018-09-19T11:39:34.213Z,51.85
2018-09-19T11:42:03.011Z,51.93
2018-09-19T11:44:31.905Z,52.09
2018-09-19T11:47:01.468Z,51.67
2018-09-19T11:49:30.387Z,52.13
2018-09-19T11:52:00.334Z,52.19
2018-09-19T11:54:29.228Z,52.17
2018-09-19T11:56:58.090Z,52.31
2018-09-19T11:59:27.565Z,51.27
2018-09-19T12:01:56.459Z,51.29
2018-09-19T12:04:25.462Z,51.94
2018-09-19T12:06:55.051Z,51.77
2018-09-19T12:09:44.332Z,51.01
2018-09-19T12:12:34.395Z,51.75
2018-09-19T12:15:23.595Z,51.16
2018-09-19T12:17:52.938Z,51.49
2018-09-19T12:20:23.212Z,50.76
2018-09-19T12:22:52.149Z,50.99
2018-09-19T12:25:20.967Z,51.21
2018-09-19T12:27:49.829Z,50.68
2018-09-19T12:30:19.117Z,50.56
2018-09-19T12:32:49.009Z,49.17
2018-09-19T12:35:18.645Z,50.21
2018-09-19T12:37:47.593Z,50.60
2018-09-19T12:40:16.644Z,50.75
2018-09-19T12:42:45.509Z,50.12
2018-09-19T12:45:14.416Z,49.74
2018-09-19T12:47:43.814Z,50.57
2018-09-19T12:50:13.297Z,49.82
2018-09-19T12:52:42.894Z,50.26
2018-09-19T12:55:11.905Z,49.25
2018-09-19T12:57:40.687Z,50.44
2018-09-19T13:00:10.325Z,49.48
2018-09-19T13:02:39.153Z,49.40
2018-09-19T13:05:08.449Z,49.73
2018-09-19T13:07:38.065Z,49.85
2018-09-19T13:10:07.013Z,49.50
2018-09-19T13:12:37.036Z,48.71
2018-09-19T13:15:06.743Z,49.47
2018-09-19T13:17:36.125Z,48.58
2018-09-19T13:20:05.964Z,49.09
2018-09-19T13:22:34.779Z,48.09
2018-09-19T13:25:03.938Z,47.65
2018-09-19T13:27:32.867Z,48.19
2018-09-19T13:30:02.229Z,47.29
2018-09-19T13:32:31.057Z,48.03
2018-09-19T13:35:01.034Z,48.57
2018-09-19T13:37:29.863Z,47.67
2018-09-19T13:39:59.152Z,48.71
2018-09-19T13:42:28.028Z,48.78
2018-09-19T13:44:56.841Z,49.81
2018-09-19T13:47:26.297Z,49.94
2018-09-19T13:49:59.335Z,49.42
2018-09-19T13:52:29.002Z,49.67
2018-09-19T13:54:58.020Z,49.11
2018-09-19T13:57:26.830Z,50.17
2018-09-19T13:59:56.285Z,50.09
2018-09-19T14:02:26.036Z,48.73
2018-09-19T14:04:54.891Z,49.71
2018-09-19T14:07:24.746Z,49.83
2018-09-19T14:09:53.596Z,48.98
2018-09-19T14:12:23.064Z,49.26
2018-09-19T14:14:52.617Z,50.04
2018-09-19T14:17:21.464Z,50.11
2018-09-19T14:19:50.855Z,50.16
2018-09-19T14:22:19.764Z,50.17
2018-09-19T14:24:48.963Z,51.22
2018-09-19T14:27:18.081Z,51.31
2018-09-19T14:29:53.425Z,51.20
2018-09-19T14:32:22.926Z,50.72
2018-09-19T14:34:56.729Z,50.48
2018-09-19T14:37:25.583Z,51.36
2018-09-19T14:39:54.418Z,51.68
2018-09-19T14:42:23.414Z,51.10
2018-09-19T14:44:52.284Z,50.79
2018-09-19T14:47:22.473Z,51.83
2018-09-19T14:49:51.322Z,51.73
2018-09-19T14:52:20.916Z,51.09
2018-09-19T14:54:50.665Z,50.76
2018-09-19T14:57:19.448Z,50.82
2018-09-19T14:59:49.245Z,50.96
2018-09-19T15:02:18.475Z,51.28
2018-09-19T15:04:47.580Z,50.49
2018-09-19T15:07:17.188Z,51.27
2018-09-19T15:09:47.069Z,51.08
2018-09-19T15:12:16.552Z,51.31
2018-09-19T15:14:46.270Z,51.56
2018-09-19T15:17:15.440Z,50.78
2018-09-19T15:19:45.844Z,51.38
2018-09-19T15:22:14.828Z,50.59
2018-09-19T15:24:43.972Z,50.83
2018-09-19T15:27:13.169Z,50.19
2018-09-19T15:29:42.819Z,50.99
2018-09-19T15:32:11.677Z,50.04
2018-09-19T15:34:40.514Z,49.75
2018-09-19T15:37:09.354Z,51.03
2018-09-19T15:39:38.173Z,50.98
2018-09-19T15:42:07.243Z,51.83
2018-09-19T15:44:36.118Z,50.74
2018-09-19T15:47:05.397Z,51.09
2018-09-19T15:49:34.233Z,50.95
2018-09-19T15:52:03.832Z,51.03
2018-09-19T15:54:32.616Z,51.55
2018-09-19T15:57:01.591Z,51.82
2018-09-19T15:59:31.202Z,52.27
2018-09-19T16:02:00.056Z,52.75
2018-09-19T16:04:28.934Z,52.83
2018-09-19T16:06:58.489Z,53.95
2018-09-19T16:09:27.281Z,52.96
2018-09-19T16:11:56.861Z,54.58
2018-09-19T16:14:26.302Z,54.63
2018-09-19T16:16:55.172Z,54.12
2018-09-19T16:19:24.490Z,54.24
2018-09-19T16:21:53.835Z,54.46
2018-09-19T16:24:22.637Z,55.11
2018-09-19T16:26:51.940Z,54.71
2018-09-19T16:29:21.501Z,54.72
2018-09-19T16:31:50.287Z,54.82
2018-09-19T16:34:19.532Z,55.49
2018-09-19T16:36:48.673Z,55.25
2018-09-19T16:39:17.762Z,56.26
2018-09-19T16:41:47.023Z,56.30
2018-09-19T16:44:16.938Z,56.02
2018-09-19T16:46:46.774Z,56.59
2018-09-19T16:49:15.594Z,56.95
2018-09-19T16:51:44.566Z,56.52
2018-09-19T16:54:14.164Z,57.21
2018-09-19T16:56:42.968Z,56.75
2018-09-19T16:59:12.542Z,57.78
2018-09-19T17:01:41.365Z,57.69
2018-09-19T17:04:10.251Z,58.12
2018-09-19T17:06:39.693Z,57.81
2018-09-19T17:09:09.378Z,58.21
2018-09-19T17:11:38.848Z,58.47
2018-09-19T17:14:07.680Z,58.95
2018-09-19T17:16:37.491Z,59.21
2018-09-19T17:19:06.775Z,58.83
2018-09-19T17:21:36.252Z,59.49
2018-09-19T17:24:05.543Z,59.95
2018-09-19T17:26:34.356Z,59.86
2018-09-19T17:29:03.799Z,60.32
2018-09-19T17:31:32.800Z,60.03
2018-09-19T17:34:01.808Z,60.07
2018-09-19T17:36:30.622Z,60.10
2018-09-19T17:38:59.466Z,60.72
2018-09-19T17:41:28.505Z,60.88
2018-09-19T17:43:57.350Z,61.05
2018-09-19T17:46:26.874Z,61.28
2018-09-19T17:48:55.788Z,61.77
2018-09-19T17:51:24.564Z,63.20
2018-09-19T17:53:54.127Z,62.67
2018-09-19T17:56:23.110Z,63.23
2018-09-19T17:58:52.377Z,63.35
2018-09-19T18:01:22.164Z,63.47
2018-09-19T18:03:51.057Z,65.01
2018-09-19T18:06:20.572Z,64.24
2018-09-19T18:08:49.930Z,64.76
2018-09-19T18:11:19.676Z,64.32
2018-09-19T18:13:48.932Z,64.38
2018-09-19T18:16:18.722Z,64.59
2018-09-19T18:18:48.584Z,65.21
2018-09-19T18:21:18.196Z,64.97
2018-09-19T18:23:47.037Z,65.08
2018-09-19T18:26:16.871Z,64.97
2018-09-19T18:28:46.140Z,65.43
2018-09-19T18:31:14.952Z,66.09
2018-09-19T18:33:43.769Z,65.71
2018-09-19T18:36:12.627Z,66.08
2018-09-19T18:38:41.543Z,66.07
2018-09-19T18:41:10.514Z,66.04
2018-09-19T18:43:39.352Z,65.41
2018-09-19T18:46:08.911Z,66.03
2018-09-19T18:48:37.695Z,66.41
2018-09-19T18:51:06.592Z,65.61
2018-09-19T18:53:35.940Z,65.37
2018-09-19T18:56:04.760Z,65.35
2018-09-19T18:58:34.151Z,66.13
2018-09-19T19:01:03.485Z,65.88
2018-09-19T19:03:32.475Z,65.75
2018-09-19T19:06:01.653Z,65.30
2018-09-19T19:08:31.174Z,65.26
2018-09-19T19:11:00.757Z,65.93
2018-09-19T19:13:29.589Z,65.79
2018-09-19T19:15:59.616Z,65.82
2018-09-19T19:18:29.204Z,64.78
2018-09-19T19:20:59.115Z,65.06
2018-09-19T19:23:27.961Z,65.02
2018-09-19T19:25:57.445Z,65.10
2018-09-19T19:28:26.315Z,65.64
2018-09-19T19:30:55.880Z,65.58
2018-09-19T19:33:24.754Z,64.83
2018-09-19T19:35:53.644Z,65.75
2018-09-19T19:38:22.468Z,64.79
2018-09-19T19:40:51.296Z,64.85
2018-09-19T19:43:20.193Z,65.37
2018-09-19T19:45:49.394Z,65.03
2018-09-19T19:48:19.175Z,64.75
2018-09-19T19:50:48.766Z,65.04
2018-09-19T19:53:19.063Z,65.10
2018-09-19T19:55:48.650Z,65.61
2018-09-19T19:58:18.340Z,65.47
2018-09-19T20:00:48.336Z,65.68
2018-09-19T20:03:17.407Z,65.71
2018-09-19T20:05:47.016Z,65.94
2018-09-19T20:08:17.461Z,65.43
2018-09-19T20:10:47.677Z,65.31
2018-09-19T20:13:17.296Z,65.56
2018-09-19T20:15:47.059Z,66.37
2018-09-19T20:18:17.136Z,66.63
2018-09-19T20:20:46.757Z,66.71
2018-09-19T20:23:15.742Z,67.09
2018-09-19T20:25:45.454Z,66.70
2018-09-19T20:28:14.312Z,67.00
2018-09-19T20:30:43.537Z,66.98
2018-09-19T20:33:12.387Z,67.25
2018-09-19T20:35:41.212Z,68.09
2018-09-19T20:38:10.060Z,67.67
2018-09-19T20:40:38.922Z,67.67
2018-09-19T20:43:07.989Z,68.12
2018-09-19T20:45:36.924Z,68.85
2018-09-19T20:48:06.411Z,69.25
2018-09-19T20:50:35.304Z,68.59
2018-09-19T20:53:05.004Z,69.73
2018-09-19T20:55:33.918Z,69.33
2018-09-19T20:58:03.518Z,70.09
2018-09-19T21:00:33.329Z,70.09
2018-09-19T21:03:02.568Z,70.19
2018-09-19T21:05:31.588Z,70.67
2018-09-19T21:08:01.052Z,69.51
2018-09-19T21:10:30.382Z,70.61
2018-09-19T21:12:59.645Z,70.12
2018-09-19T21:15:29.239Z,70.60
2018-09-19T21:17:58.458Z,70.89
2018-09-19T21:20:28.307Z,70.13
2018-09-19T21:22:57.091Z,70.52
2018-09-19T21:25:26.880Z,70.64
2018-09-19T21:27:55.734Z,70.78
2018-09-19T21:30:25.154Z,70.67
2018-09-19T21:32:53.988Z,70.92
2018-09-19T21:35:22.924Z,70.38
2018-09-19T21:37:51.915Z,71.21
2018-09-19T21:40:21.519Z,71.35
2018-09-19T21:42:50.558Z,71.20
2018-09-19T21:45:19.992Z,71.59
2018-09-19T21:47:49.830Z,70.80
2018-09-19T21:50:19.824Z,71.70
2018-09-19T21:52:49.615Z,71.81
2018-09-19T21:55:19.288Z,71.73
2018-09-19T21:57:48.649Z,71.23
2018-09-19T22:00:18.702Z,72.22
2018-09-19T22:02:47.738Z,71.82
2018-09-19T22:05:16.830Z,71.85
2018-09-19T22:07:47.131Z,71.68
2018-09-19T22:10:16.358Z,72.00
2018-09-19T22:12:45.621Z,72.40
2018-09-19T22:15:15.533Z,72.00
2018-09-19T22:17:45.747Z,72.36
2018-09-19T22:20:15.099Z,72.09
2018-09-19T22:22:44.093Z,72.06
2018-09-19T22:25:12.937Z,72.71
2018-09-19T22:27:41.875Z,72.18
2018-09-19T22:30:11.579Z,72.03
2018-09-19T22:32:40.468Z,72.06
2018-09-19T22:35:09.306Z,71.67
2018-09-19T22:37:38.195Z,71.82
2018-09-19T22:40:07.118Z,71.74
2018-09-19T22:42:36.347Z,72.03
2018-09-19T22:45:05.372Z,72.51
2018-09-19T22:47:34.820Z,71.97
2018-09-19T22:50:03.773Z,72.17
2018-09-19T22:52:33.439Z,72.80
2018-09-19T22:55:02.804Z,71.97
2018-09-19T22:57:31.832Z,72.35
2018-09-19T23:00:01.249Z,72.58
2018-09-19T23:02:30.168Z,72.60
2018-09-19T23:04:59.020Z,72.17
2018-09-19T23:07:28.640Z,72.62
2018-09-19T23:09:58.088Z,71.93
2018-09-19T23:12:33.096Z,71.96
2018-09-19T23:15:02.817Z,71.88
2018-09-19T23:17:32.033Z,71.57
2018-09-19T23:20:01.884Z,71.44
2018-09-19T23:22:30.896Z,72.13
2018-09-19T23:24:59.909Z,72.30
2018-09-19T23:27:29.767Z,72.15
2018-09-19T23:29:59.338Z,71.16
2018-09-19T23:32:28.246Z,71.06
2018-09-19T23:34:57.091Z,70.93
2018-09-19T23:37:25.952Z,71.70
2018-09-19T23:39:54.821Z,71.44
2018-09-19T23:42:23.844Z,71.26
2018-09-19T23:44:52.998Z,71.49
2018-09-19T23:47:22.396Z,71.21
2018-09-19T23:49:51.239Z,71.16
2018-09-19T23:52:20.708Z,71.01
2018-09-19T23:54:49.654Z,70.49
2018-09-19T23:57:18.721Z,70.73
2018-09-19T23:59:48.430Z,70.66
